sensor_id;sensor_type;location;lat;lon;timestamp;P1;durP1;ratioP1;P2;durP2;ratioP2
77152;SDS011;66124;51.146;17.072;2023-03-14T00:01:56;6.00;;;3.10;;
77152;SDS011;66124;51.146;17.072;2023-03-14T00:04:26;7.60;;;3.30;;
77152;SDS011;66124;51.146;17.072;2023-03-14T00:06:56;5.10;;;2.70;;
77152;SDS011;66124;51.146;17.072;2023-03-14T00:09:25;4.60;;;3.00;;
77152;SDS011;66124;51.146;17.072;2023-03-14T00:11:54;6.50;;;2.70;;
77152;SDS011;66124;51.146;17.072;2023-03-14T00:14:26;5.30;;;2.90;;
77152;SDS011;66124;51.146;17.072;2023-03-14T00:16:56;4.00;;;2.20;;
77152;SDS011;66124;51.146;17.072;2023-03-14T00:24:38;6.60;;;3.50;;
77152;SDS011;66124;51.146;17.072;2023-03-14T00:27:07;7.10;;;3.20;;
77152;SDS011;66124;51.146;17.072;2023-03-14T00:29:36;5.90;;;3.00;;
77152;SDS011;66124;51.146;17.072;2023-03-14T00:32:06;5.20;;;3.20;;
77152;SDS011;66124;51.146;17.072;2023-03-14T00:34:35;5.50;;;3.20;;
77152;SDS011;66124;51.146;17.072;2023-03-14T00:37:06;4.60;;;2.70;;
77152;SDS011;66124;51.146;17.072;2023-03-14T00:39:35;3.70;;;3.00;;
77152;SDS011;66124;51.146;17.072;2023-03-14T00:42:05;5.00;;;2.70;;
77152;SDS011;66124;51.146;17.072;2023-03-14T00:44:34;6.90;;;3.60;;
77152;SDS011;66124;51.146;17.072;2023-03-14T00:47:04;4.60;;;2.50;;
77152;SDS011;66124;51.146;17.072;2023-03-14T00:49:34;6.30;;;3.00;;
77152;SDS011;66124;51.146;17.072;2023-03-14T00:52:03;6.90;;;3.50;;
77152;SDS011;66124;51.146;17.072;2023-03-14T00:54:33;8.50;;;3.40;;
77152;SDS011;66124;51.146;17.072;2023-03-14T00:57:02;6.30;;;3.40;;
77152;SDS011;66124;51.146;17.072;2023-03-14T00:59:31;6.70;;;4.00;;
77152;SDS011;66124;51.146;17.072;2023-03-14T01:02:01;6.30;;;3.20;;
77152;SDS011;66124;51.146;17.072;2023-03-14T01:04:30;6.80;;;4.20;;
77152;SDS011;66124;51.146;17.072;2023-03-14T01:06:59;7.00;;;3.90;;
77152;SDS011;66124;51.146;17.072;2023-03-14T01:09:29;6.70;;;3.80;;
77152;SDS011;66124;51.146;17.072;2023-03-14T01:11:58;5.60;;;3.50;;
77152;SDS011;66124;51.146;17.072;2023-03-14T01:14:27;6.10;;;3.20;;
77152;SDS011;66124;51.146;17.072;2023-03-14T01:16:57;5.90;;;3.30;;
77152;SDS011;66124;51.146;17.072;2023-03-14T01:19:26;7.50;;;3.30;;
77152;SDS011;66124;51.146;17.072;2023-03-14T01:21:55;5.30;;;2.90;;
77152;SDS011;66124;51.146;17.072;2023-03-14T01:24:25;3.70;;;2.60;;
77152;SDS011;66124;51.146;17.072;2023-03-14T01:26:54;4.00;;;2.50;;
77152;SDS011;66124;51.146;17.072;2023-03-14T01:29:23;4.10;;;2.20;;
77152;SDS011;66124;51.146;17.072;2023-03-14T01:31:53;4.50;;;2.00;;
77152;SDS011;66124;51.146;17.072;2023-03-14T01:34:22;3.40;;;2.40;;
77152;SDS011;66124;51.146;17.072;2023-03-14T01:44:27;5.70;;;2.60;;
77152;SDS011;66124;51.146;17.072;2023-03-14T01:46:56;4.50;;;2.40;;
77152;SDS011;66124;51.146;17.072;2023-03-14T01:49:26;4.20;;;2.70;;
77152;SDS011;66124;51.146;17.072;2023-03-14T01:51:58;4.80;;;2.30;;
77152;SDS011;66124;51.146;17.072;2023-03-14T01:54:32;4.60;;;2.30;;
77152;SDS011;66124;51.146;17.072;2023-03-14T01:57:07;4.30;;;2.30;;
77152;SDS011;66124;51.146;17.072;2023-03-14T01:59:39;4.90;;;2.80;;
77152;SDS011;66124;51.146;17.072;2023-03-14T02:02:11;5.50;;;3.00;;
77152;SDS011;66124;51.146;17.072;2023-03-14T02:04:43;4.50;;;3.00;;
77152;SDS011;66124;51.146;17.072;2023-03-14T02:07:14;5.10;;;3.00;;
77152;SDS011;66124;51.146;17.072;2023-03-14T02:09:46;5.60;;;2.70;;
77152;SDS011;66124;51.146;17.072;2023-03-14T02:12:16;6.70;;;2.90;;
77152;SDS011;66124;51.146;17.072;2023-03-14T02:14:47;4.20;;;2.80;;
77152;SDS011;66124;51.146;17.072;2023-03-14T02:17:17;4.80;;;3.00;;
77152;SDS011;66124;51.146;17.072;2023-03-14T02:20:03;7.60;;;3.00;;
77152;SDS011;66124;51.146;17.072;2023-03-14T02:22:42;4.90;;;2.80;;
77152;SDS011;66124;51.146;17.072;2023-03-14T02:25:14;7.80;;;3.40;;
77152;SDS011;66124;51.146;17.072;2023-03-14T02:27:50;6.20;;;3.20;;
77152;SDS011;66124;51.146;17.072;2023-03-14T02:30:20;4.30;;;2.80;;
77152;SDS011;66124;51.146;17.072;2023-03-14T02:32:52;5.20;;;2.90;;
77152;SDS011;66124;51.146;17.072;2023-03-14T02:35:26;3.30;;;2.70;;
77152;SDS011;66124;51.146;17.072;2023-03-14T02:38:00;4.10;;;2.70;;
77152;SDS011;66124;51.146;17.072;2023-03-14T02:40:37;4.70;;;2.70;;
77152;SDS011;66124;51.146;17.072;2023-03-14T02:43:06;5.80;;;2.60;;
77152;SDS011;66124;51.146;17.072;2023-03-14T02:45:37;3.70;;;2.40;;
77152;SDS011;66124;51.146;17.072;2023-03-14T02:48:11;4.30;;;2.40;;
77152;SDS011;66124;51.146;17.072;2023-03-14T02:50:43;6.60;;;3.00;;
77152;SDS011;66124;51.146;17.072;2023-03-14T02:53:17;4.40;;;2.60;;
77152;SDS011;66124;51.146;17.072;2023-03-14T02:55:49;3.10;;;0.40;;
77152;SDS011;66124;51.146;17.072;2023-03-14T03:03:26;3.20;;;2.10;;
77152;SDS011;66124;51.146;17.072;2023-03-14T03:05:55;4.20;;;2.40;;
77152;SDS011;66124;51.146;17.072;2023-03-14T03:08:26;3.10;;;1.90;;
77152;SDS011;66124;51.146;17.072;2023-03-14T03:10:56;2.60;;;1.90;;
77152;SDS011;66124;51.146;17.072;2023-03-14T03:13:26;3.00;;;2.10;;
77152;SDS011;66124;51.146;17.072;2023-03-14T03:15:55;3.80;;;2.20;;
77152;SDS011;66124;51.146;17.072;2023-03-14T03:18:24;4.30;;;2.10;;
77152;SDS011;66124;51.146;17.072;2023-03-14T03:20:54;3.40;;;2.10;;
77152;SDS011;66124;51.146;17.072;2023-03-14T03:23:26;4.00;;;2.10;;
77152;SDS011;66124;51.146;17.072;2023-03-14T03:25:56;3.60;;;1.90;;
77152;SDS011;66124;51.146;17.072;2023-03-14T03:28:25;3.70;;;2.00;;
77152;SDS011;66124;51.146;17.072;2023-03-14T03:30:55;3.40;;;1.70;;
77152;SDS011;66124;51.146;17.072;2023-03-14T03:33:24;2.30;;;1.70;;
77152;SDS011;66124;51.146;17.072;2023-03-14T03:35:53;2.90;;;1.40;;
77152;SDS011;66124;51.146;17.072;2023-03-14T03:38:23;3.40;;;1.90;;
77152;SDS011;66124;51.146;17.072;2023-03-14T03:40:52;3.40;;;1.90;;
77152;SDS011;66124;51.146;17.072;2023-03-14T03:43:21;3.40;;;2.00;;
77152;SDS011;66124;51.146;17.072;2023-03-14T03:45:51;3.70;;;2.00;;
77152;SDS011;66124;51.146;17.072;2023-03-14T03:48:20;3.50;;;1.80;;
77152;SDS011;66124;51.146;17.072;2023-03-14T03:50:49;2.90;;;1.80;;
77152;SDS011;66124;51.146;17.072;2023-03-14T03:53:19;6.80;;;2.20;;
77152;SDS011;66124;51.146;17.072;2023-03-14T03:55:48;2.60;;;1.70;;
77152;SDS011;66124;51.146;17.072;2023-03-14T03:58:17;4.30;;;1.90;;
77152;SDS011;66124;51.146;17.072;2023-03-14T04:00:47;3.00;;;1.70;;
77152;SDS011;66124;51.146;17.072;2023-03-14T04:03:16;4.10;;;2.10;;
77152;SDS011;66124;51.146;17.072;2023-03-14T04:05:45;3.70;;;1.80;;
77152;SDS011;66124;51.146;17.072;2023-03-14T04:08:24;2.60;;;1.70;;
77152;SDS011;66124;51.146;17.072;2023-03-14T04:10:55;3.40;;;1.40;;
77152;SDS011;66124;51.146;17.072;2023-03-14T04:23:29;2.70;;;1.70;;
77152;SDS011;66124;51.146;17.072;2023-03-14T04:25:59;3.00;;;2.00;;
77152;SDS011;66124;51.146;17.072;2023-03-14T04:28:28;5.60;;;2.30;;
77152;SDS011;66124;51.146;17.072;2023-03-14T04:30:57;2.30;;;1.80;;
77152;SDS011;66124;51.146;17.072;2023-03-14T04:33:33;3.20;;;1.70;;
77152;SDS011;66124;51.146;17.072;2023-03-14T04:36:03;1.90;;;1.50;;
77152;SDS011;66124;51.146;17.072;2023-03-14T04:38:34;3.20;;;1.70;;
77152;SDS011;66124;51.146;17.072;2023-03-14T04:41:04;2.30;;;1.50;;
77152;SDS011;66124;51.146;17.072;2023-03-14T04:43:34;2.90;;;1.90;;
77152;SDS011;66124;51.146;17.072;2023-03-14T04:46:04;3.70;;;1.90;;
77152;SDS011;66124;51.146;17.072;2023-03-14T04:48:34;2.70;;;1.60;;
77152;SDS011;66124;51.146;17.072;2023-03-14T04:51:04;2.70;;;1.70;;
77152;SDS011;66124;51.146;17.072;2023-03-14T04:53:34;2.50;;;1.60;;
77152;SDS011;66124;51.146;17.072;2023-03-14T04:56:04;4.10;;;2.00;;
77152;SDS011;66124;51.146;17.072;2023-03-14T04:58:34;4.70;;;2.00;;
77152;SDS011;66124;51.146;17.072;2023-03-14T05:01:04;2.20;;;2.00;;
77152;SDS011;66124;51.146;17.072;2023-03-14T05:03:34;3.10;;;1.80;;
77152;SDS011;66124;51.146;17.072;2023-03-14T05:06:04;3.30;;;1.50;;
77152;SDS011;66124;51.146;17.072;2023-03-14T05:08:34;2.90;;;1.90;;
77152;SDS011;66124;51.146;17.072;2023-03-14T05:11:04;5.10;;;2.00;;
77152;SDS011;66124;51.146;17.072;2023-03-14T05:13:34;2.20;;;1.80;;
77152;SDS011;66124;51.146;17.072;2023-03-14T05:16:04;3.40;;;2.20;;
77152;SDS011;66124;51.146;17.072;2023-03-14T05:21:03;2.90;;;1.90;;
77152;SDS011;66124;51.146;17.072;2023-03-14T05:23:33;2.90;;;2.10;;
77152;SDS011;66124;51.146;17.072;2023-03-14T05:26:03;3.10;;;2.10;;
77152;SDS011;66124;51.146;17.072;2023-03-14T05:28:33;2.90;;;1.90;;
77152;SDS011;66124;51.146;17.072;2023-03-14T05:31:02;3.00;;;1.50;;
77152;SDS011;66124;51.146;17.072;2023-03-14T05:41:48;2.80;;;2.20;;
77152;SDS011;66124;51.146;17.072;2023-03-14T05:44:17;4.60;;;2.40;;
77152;SDS011;66124;51.146;17.072;2023-03-14T05:46:47;5.10;;;2.50;;
77152;SDS011;66124;51.146;17.072;2023-03-14T05:49:16;3.90;;;2.60;;
77152;SDS011;66124;51.146;17.072;2023-03-14T05:51:45;3.90;;;2.20;;
77152;SDS011;66124;51.146;17.072;2023-03-14T05:54:16;3.90;;;2.40;;
77152;SDS011;66124;51.146;17.072;2023-03-14T05:56:46;4.10;;;2.30;;
77152;SDS011;66124;51.146;17.072;2023-03-14T05:59:15;3.60;;;2.20;;
77152;SDS011;66124;51.146;17.072;2023-03-14T06:01:45;5.60;;;2.30;;
77152;SDS011;66124;51.146;17.072;2023-03-14T06:04:14;5.10;;;2.60;;
77152;SDS011;66124;51.146;17.072;2023-03-14T06:06:43;3.30;;;2.20;;
77152;SDS011;66124;51.146;17.072;2023-03-14T06:09:13;4.60;;;2.60;;
77152;SDS011;66124;51.146;17.072;2023-03-14T06:11:42;4.00;;;2.20;;
77152;SDS011;66124;51.146;17.072;2023-03-14T06:14:12;4.80;;;3.20;;
77152;SDS011;66124;51.146;17.072;2023-03-14T06:16:41;5.60;;;2.30;;
77152;SDS011;66124;51.146;17.072;2023-03-14T06:19:11;3.20;;;2.50;;
77152;SDS011;66124;51.146;17.072;2023-03-14T06:21:40;3.40;;;2.40;;
77152;SDS011;66124;51.146;17.072;2023-03-14T06:24:10;4.50;;;2.90;;
77152;SDS011;66124;51.146;17.072;2023-03-14T06:26:39;3.40;;;2.20;;
77152;SDS011;66124;51.146;17.072;2023-03-14T06:29:08;3.60;;;2.40;;
77152;SDS011;66124;51.146;17.072;2023-03-14T06:31:38;3.80;;;2.70;;
77152;SDS011;66124;51.146;17.072;2023-03-14T06:34:07;4.30;;;2.70;;
77152;SDS011;66124;51.146;17.072;2023-03-14T06:36:37;5.30;;;3.60;;
77152;SDS011;66124;51.146;17.072;2023-03-14T06:39:06;7.00;;;3.30;;
77152;SDS011;66124;51.146;17.072;2023-03-14T06:41:35;4.00;;;2.70;;
77152;SDS011;66124;51.146;17.072;2023-03-14T06:44:05;3.60;;;2.70;;
77152;SDS011;66124;51.146;17.072;2023-03-14T06:46:35;3.70;;;2.80;;
77152;SDS011;66124;51.146;17.072;2023-03-14T06:49:04;7.60;;;3.00;;
77152;SDS011;66124;51.146;17.072;2023-03-14T06:51:33;5.20;;;2.10;;
77152;SDS011;66124;51.146;17.072;2023-03-14T07:01:38;4.60;;;3.10;;
77152;SDS011;66124;51.146;17.072;2023-03-14T07:04:07;4.80;;;2.80;;
77152;SDS011;66124;51.146;17.072;2023-03-14T07:06:37;5.90;;;2.50;;
77152;SDS011;66124;51.146;17.072;2023-03-14T07:09:07;3.90;;;2.70;;
77152;SDS011;66124;51.146;17.072;2023-03-14T07:11:36;6.70;;;2.70;;
77152;SDS011;66124;51.146;17.072;2023-03-14T07:14:06;3.80;;;2.50;;
77152;SDS011;66124;51.146;17.072;2023-03-14T07:16:36;8.30;;;2.80;;
77152;SDS011;66124;51.146;17.072;2023-03-14T07:19:05;4.00;;;2.30;;
77152;SDS011;66124;51.146;17.072;2023-03-14T07:21:35;5.70;;;2.90;;
77152;SDS011;66124;51.146;17.072;2023-03-14T07:24:04;3.50;;;2.90;;
77152;SDS011;66124;51.146;17.072;2023-03-14T07:26:34;3.80;;;1.90;;
77152;SDS011;66124;51.146;17.072;2023-03-14T07:29:03;5.00;;;2.60;;
77152;SDS011;66124;51.146;17.072;2023-03-14T07:31:33;4.60;;;3.00;;
77152;SDS011;66124;51.146;17.072;2023-03-14T07:34:03;4.00;;;3.20;;
77152;SDS011;66124;51.146;17.072;2023-03-14T07:36:32;5.20;;;3.00;;
77152;SDS011;66124;51.146;17.072;2023-03-14T07:39:02;4.20;;;2.70;;
77152;SDS011;66124;51.146;17.072;2023-03-14T07:41:32;4.10;;;2.60;;
77152;SDS011;66124;51.146;17.072;2023-03-14T07:44:02;4.10;;;3.40;;
77152;SDS011;66124;51.146;17.072;2023-03-14T07:46:31;5.30;;;2.60;;
77152;SDS011;66124;51.146;17.072;2023-03-14T07:49:00;7.10;;;2.50;;
77152;SDS011;66124;51.146;17.072;2023-03-14T07:51:30;7.10;;;2.60;;
77152;SDS011;66124;51.146;17.072;2023-03-14T07:53:59;3.90;;;2.70;;
77152;SDS011;66124;51.146;17.072;2023-03-14T07:56:28;4.90;;;2.70;;
77152;SDS011;66124;51.146;17.072;2023-03-14T07:58:57;4.90;;;2.50;;
77152;SDS011;66124;51.146;17.072;2023-03-14T08:01:27;5.20;;;2.50;;
77152;SDS011;66124;51.146;17.072;2023-03-14T08:03:56;3.90;;;2.30;;
77152;SDS011;66124;51.146;17.072;2023-03-14T08:06:26;5.00;;;2.50;;
77152;SDS011;66124;51.146;17.072;2023-03-14T08:08:55;4.80;;;2.50;;
77152;SDS011;66124;51.146;17.072;2023-03-14T08:11:24;3.30;;;1.40;;
77152;SDS011;66124;51.146;17.072;2023-03-14T08:20:16;4.60;;;2.70;;
77152;SDS011;66124;51.146;17.072;2023-03-14T08:22:45;3.60;;;2.70;;
77152;SDS011;66124;51.146;17.072;2023-03-14T08:25:15;5.40;;;2.80;;
77152;SDS011;66124;51.146;17.072;2023-03-14T08:27:44;4.30;;;2.90;;
77152;SDS011;66124;51.146;17.072;2023-03-14T08:30:15;3.80;;;2.30;;
77152;SDS011;66124;51.146;17.072;2023-03-14T08:32:45;4.50;;;2.70;;
77152;SDS011;66124;51.146;17.072;2023-03-14T08:35:15;5.30;;;2.60;;
77152;SDS011;66124;51.146;17.072;2023-03-14T08:37:45;3.80;;;2.90;;
77152;SDS011;66124;51.146;17.072;2023-03-14T08:40:14;5.70;;;3.10;;
77152;SDS011;66124;51.146;17.072;2023-03-14T08:42:45;4.90;;;3.10;;
77152;SDS011;66124;51.146;17.072;2023-03-14T08:45:15;5.30;;;3.10;;
77152;SDS011;66124;51.146;17.072;2023-03-14T08:47:45;6.20;;;3.10;;
77152;SDS011;66124;51.146;17.072;2023-03-14T08:50:14;4.20;;;3.40;;
77152;SDS011;66124;51.146;17.072;2023-03-14T08:52:43;5.20;;;3.30;;
77152;SDS011;66124;51.146;17.072;2023-03-14T08:55:13;7.30;;;3.20;;
77152;SDS011;66124;51.146;17.072;2023-03-14T08:57:42;4.60;;;2.50;;
77152;SDS011;66124;51.146;17.072;2023-03-14T09:00:14;6.10;;;3.20;;
77152;SDS011;66124;51.146;17.072;2023-03-14T09:02:44;4.30;;;3.00;;
77152;SDS011;66124;51.146;17.072;2023-03-14T09:05:14;4.90;;;2.90;;
77152;SDS011;66124;51.146;17.072;2023-03-14T09:07:43;6.30;;;3.70;;
77152;SDS011;66124;51.146;17.072;2023-03-14T09:10:13;5.00;;;2.90;;
77152;SDS011;66124;51.146;17.072;2023-03-14T09:12:43;5.00;;;3.10;;
77152;SDS011;66124;51.146;17.072;2023-03-14T09:15:12;6.30;;;3.10;;
77152;SDS011;66124;51.146;17.072;2023-03-14T09:17:43;6.10;;;3.80;;
77152;SDS011;66124;51.146;17.072;2023-03-14T09:20:13;4.20;;;2.70;;
77152;SDS011;66124;51.146;17.072;2023-03-14T09:22:42;5.20;;;3.30;;
77152;SDS011;66124;51.146;17.072;2023-03-14T09:25:11;5.40;;;3.60;;
77152;SDS011;66124;51.146;17.072;2023-03-14T09:27:41;5.30;;;3.30;;
77152;SDS011;66124;51.146;17.072;2023-03-14T09:30:11;3.60;;;0.70;;
77152;SDS011;66124;51.146;17.072;2023-03-14T09:40:30;5.70;;;4.00;;
77152;SDS011;66124;51.146;17.072;2023-03-14T09:43:02;7.00;;;3.30;;
77152;SDS011;66124;51.146;17.072;2023-03-14T09:45:32;4.10;;;2.60;;
77152;SDS011;66124;51.146;17.072;2023-03-14T09:48:04;8.30;;;3.60;;
77152;SDS011;66124;51.146;17.072;2023-03-14T09:50:42;6.70;;;2.90;;
77152;SDS011;66124;51.146;17.072;2023-03-14T09:53:14;4.00;;;2.60;;
77152;SDS011;66124;51.146;17.072;2023-03-14T09:55:47;5.20;;;2.80;;
77152;SDS011;66124;51.146;17.072;2023-03-14T09:58:19;10.50;;;4.60;;
77152;SDS011;66124;51.146;17.072;2023-03-14T10:00:50;5.30;;;3.00;;
77152;SDS011;66124;51.146;17.072;2023-03-14T10:03:24;4.60;;;2.80;;
77152;SDS011;66124;51.146;17.072;2023-03-14T10:05:57;6.00;;;2.50;;
77152;SDS011;66124;51.146;17.072;2023-03-14T10:08:27;4.00;;;2.60;;
77152;SDS011;66124;51.146;17.072;2023-03-14T10:10:57;10.60;;;3.00;;
77152;SDS011;66124;51.146;17.072;2023-03-14T10:13:27;5.60;;;2.70;;
77152;SDS011;66124;51.146;17.072;2023-03-14T10:15:58;5.70;;;2.90;;
77152;SDS011;66124;51.146;17.072;2023-03-14T10:18:30;5.50;;;3.10;;
77152;SDS011;66124;51.146;17.072;2023-03-14T10:21:05;6.00;;;2.80;;
77152;SDS011;66124;51.146;17.072;2023-03-14T10:23:44;5.20;;;3.10;;
77152;SDS011;66124;51.146;17.072;2023-03-14T10:26:15;7.40;;;3.20;;
77152;SDS011;66124;51.146;17.072;2023-03-14T10:28:46;5.50;;;3.20;;
77152;SDS011;66124;51.146;17.072;2023-03-14T10:31:19;6.20;;;3.20;;
77152;SDS011;66124;51.146;17.072;2023-03-14T10:34:00;6.90;;;2.90;;
77152;SDS011;66124;51.146;17.072;2023-03-14T10:36:31;4.90;;;2.80;;
77152;SDS011;66124;51.146;17.072;2023-03-14T10:39:16;4.90;;;2.70;;
77152;SDS011;66124;51.146;17.072;2023-03-14T10:41:53;6.20;;;3.30;;
77152;SDS011;66124;51.146;17.072;2023-03-14T10:44:30;6.10;;;3.10;;
77152;SDS011;66124;51.146;17.072;2023-03-14T10:47:02;6.10;;;3.30;;
77152;SDS011;66124;51.146;17.072;2023-03-14T10:49:33;5.20;;;3.60;;
77152;SDS011;66124;51.146;17.072;2023-03-14T11:05:27;6.00;;;3.40;;
77152;SDS011;66124;51.146;17.072;2023-03-14T11:08:01;6.80;;;3.70;;
77152;SDS011;66124;51.146;17.072;2023-03-14T11:10:35;6.20;;;3.50;;
77152;SDS011;66124;51.146;17.072;2023-03-14T11:13:11;4.70;;;2.90;;
77152;SDS011;66124;51.146;17.072;2023-03-14T11:15:50;6.50;;;3.70;;
77152;SDS011;66124;51.146;17.072;2023-03-14T11:18:35;6.90;;;4.10;;
77152;SDS011;66124;51.146;17.072;2023-03-14T11:21:20;5.50;;;3.30;;
77152;SDS011;66124;51.146;17.072;2023-03-14T11:24:00;6.60;;;3.70;;
77152;SDS011;66124;51.146;17.072;2023-03-14T11:26:46;5.00;;;2.80;;
77152;SDS011;66124;51.146;17.072;2023-03-14T11:29:23;5.00;;;3.00;;
77152;SDS011;66124;51.146;17.072;2023-03-14T11:31:59;4.50;;;2.70;;
77152;SDS011;66124;51.146;17.072;2023-03-14T11:34:35;3.80;;;2.60;;
77152;SDS011;66124;51.146;17.072;2023-03-14T11:37:13;5.30;;;2.80;;
77152;SDS011;66124;51.146;17.072;2023-03-14T11:39:51;4.70;;;3.00;;
77152;SDS011;66124;51.146;17.072;2023-03-14T11:42:27;5.90;;;2.90;;
77152;SDS011;66124;51.146;17.072;2023-03-14T11:44:59;4.90;;;2.60;;
77152;SDS011;66124;51.146;17.072;2023-03-14T11:47:31;6.20;;;2.50;;
77152;SDS011;66124;51.146;17.072;2023-03-14T11:50:07;3.90;;;2.90;;
77152;SDS011;66124;51.146;17.072;2023-03-14T11:52:45;3.70;;;2.50;;
77152;SDS011;66124;51.146;17.072;2023-03-14T11:55:18;4.60;;;2.30;;
77152;SDS011;66124;51.146;17.072;2023-03-14T11:57:51;4.10;;;2.50;;
77152;SDS011;66124;51.146;17.072;2023-03-14T12:00:24;3.80;;;2.20;;
77152;SDS011;66124;51.146;17.072;2023-03-14T12:02:56;4.10;;;2.20;;
77152;SDS011;66124;51.146;17.072;2023-03-14T12:05:37;3.80;;;2.40;;
77152;SDS011;66124;51.146;17.072;2023-03-14T12:11:30;4.40;;;1.70;;
77152;SDS011;66124;51.146;17.072;2023-03-14T12:14:03;2.10;;;1.90;;
77152;SDS011;66124;51.146;17.072;2023-03-14T12:24:29;4.50;;;2.50;;
77152;SDS011;66124;51.146;17.072;2023-03-14T12:27:02;4.40;;;2.50;;
77152;SDS011;66124;51.146;17.072;2023-03-14T12:29:33;3.60;;;2.40;;
77152;SDS011;66124;51.146;17.072;2023-03-14T12:32:28;5.70;;;2.80;;
77152;SDS011;66124;51.146;17.072;2023-03-14T12:34:58;3.60;;;2.50;;
77152;SDS011;66124;51.146;17.072;2023-03-14T12:38:00;4.40;;;2.90;;
77152;SDS011;66124;51.146;17.072;2023-03-14T12:40:37;3.70;;;2.40;;
77152;SDS011;66124;51.146;17.072;2023-03-14T12:43:25;4.70;;;3.10;;
77152;SDS011;66124;51.146;17.072;2023-03-14T12:46:14;4.60;;;3.20;;
77152;SDS011;66124;51.146;17.072;2023-03-14T12:48:49;4.20;;;3.10;;
77152;SDS011;66124;51.146;17.072;2023-03-14T12:51:26;4.90;;;2.70;;
77152;SDS011;66124;51.146;17.072;2023-03-14T12:54:06;3.00;;;2.60;;
77152;SDS011;66124;51.146;17.072;2023-03-14T12:59:47;4.90;;;2.80;;
77152;SDS011;66124;51.146;17.072;2023-03-14T13:02:26;4.30;;;2.80;;
77152;SDS011;66124;51.146;17.072;2023-03-14T13:05:01;4.40;;;2.90;;
77152;SDS011;66124;51.146;17.072;2023-03-14T13:08:01;4.90;;;2.80;;
77152;SDS011;66124;51.146;17.072;2023-03-14T13:10:40;4.10;;;3.20;;
77152;SDS011;66124;51.146;17.072;2023-03-14T13:13:19;4.10;;;3.10;;
77152;SDS011;66124;51.146;17.072;2023-03-14T13:15:49;4.40;;;2.80;;
77152;SDS011;66124;51.146;17.072;2023-03-14T13:18:26;5.10;;;3.10;;
77152;SDS011;66124;51.146;17.072;2023-03-14T13:20:58;5.50;;;2.90;;
77152;SDS011;66124;51.146;17.072;2023-03-14T13:23:31;4.90;;;3.00;;
77152;SDS011;66124;51.146;17.072;2023-03-14T13:26:01;3.90;;;2.40;;
77152;SDS011;66124;51.146;17.072;2023-03-14T13:28:37;3.50;;;2.30;;
77152;SDS011;66124;51.146;17.072;2023-03-14T13:31:12;4.00;;;2.50;;
77152;SDS011;66124;51.146;17.072;2023-03-14T13:33:57;3.90;;;1.90;;
77152;SDS011;66124;51.146;17.072;2023-03-14T13:41:41;4.70;;;3.00;;
77152;SDS011;66124;51.146;17.072;2023-03-14T13:44:15;3.60;;;2.30;;
77152;SDS011;66124;51.146;17.072;2023-03-14T13:46:50;4.50;;;2.70;;
77152;SDS011;66124;51.146;17.072;2023-03-14T13:49:25;4.10;;;3.70;;
77152;SDS011;66124;51.146;17.072;2023-03-14T13:51:56;5.70;;;2.80;;
77152;SDS011;66124;51.146;17.072;2023-03-14T13:54:26;3.50;;;2.20;;
77152;SDS011;66124;51.146;17.072;2023-03-14T13:57:02;4.50;;;3.40;;
77152;SDS011;66124;51.146;17.072;2023-03-14T13:59:33;4.30;;;2.70;;
77152;SDS011;66124;51.146;17.072;2023-03-14T14:02:04;4.10;;;2.70;;
77152;SDS011;66124;51.146;17.072;2023-03-14T14:04:40;4.40;;;2.40;;
77152;SDS011;66124;51.146;17.072;2023-03-14T14:07:10;2.70;;;2.40;;
77152;SDS011;66124;51.146;17.072;2023-03-14T14:09:44;5.30;;;2.70;;
77152;SDS011;66124;51.146;17.072;2023-03-14T14:12:16;3.50;;;2.20;;
77152;SDS011;66124;51.146;17.072;2023-03-14T14:14:49;5.40;;;2.90;;
77152;SDS011;66124;51.146;17.072;2023-03-14T14:17:24;3.80;;;2.70;;
77152;SDS011;66124;51.146;17.072;2023-03-14T14:19:58;4.20;;;2.30;;
77152;SDS011;66124;51.146;17.072;2023-03-14T14:22:28;3.70;;;2.50;;
77152;SDS011;66124;51.146;17.072;2023-03-14T14:24:59;4.70;;;2.60;;
77152;SDS011;66124;51.146;17.072;2023-03-14T14:27:32;5.10;;;2.50;;
77152;SDS011;66124;51.146;17.072;2023-03-14T14:30:05;5.40;;;3.00;;
77152;SDS011;66124;51.146;17.072;2023-03-14T14:33:06;4.20;;;2.80;;
77152;SDS011;66124;51.146;17.072;2023-03-14T14:35:48;3.40;;;2.80;;
77152;SDS011;66124;51.146;17.072;2023-03-14T14:38:20;3.10;;;2.60;;
77152;SDS011;66124;51.146;17.072;2023-03-14T14:40:52;4.50;;;2.80;;
77152;SDS011;66124;51.146;17.072;2023-03-14T14:43:27;5.30;;;3.10;;
77152;SDS011;66124;51.146;17.072;2023-03-14T14:46:05;5.30;;;3.10;;
77152;SDS011;66124;51.146;17.072;2023-03-14T14:48:37;4.80;;;3.00;;
77152;SDS011;66124;51.146;17.072;2023-03-14T14:51:07;3.70;;;2.70;;
77152;SDS011;66124;51.146;17.072;2023-03-14T14:58:48;6.00;;;3.10;;
77152;SDS011;66124;51.146;17.072;2023-03-14T15:01:23;3.80;;;2.60;;
77152;SDS011;66124;51.146;17.072;2023-03-14T15:03:58;6.40;;;2.60;;
77152;SDS011;66124;51.146;17.072;2023-03-14T15:06:28;3.80;;;2.40;;
77152;SDS011;66124;51.146;17.072;2023-03-14T15:08:58;6.70;;;3.30;;
77152;SDS011;66124;51.146;17.072;2023-03-14T15:11:27;5.10;;;2.70;;
77152;SDS011;66124;51.146;17.072;2023-03-14T15:13:57;4.90;;;2.70;;
77152;SDS011;66124;51.146;17.072;2023-03-14T15:16:27;5.50;;;3.60;;
77152;SDS011;66124;51.146;17.072;2023-03-14T15:18:59;3.40;;;2.70;;
77152;SDS011;66124;51.146;17.072;2023-03-14T15:21:29;5.70;;;3.10;;
77152;SDS011;66124;51.146;17.072;2023-03-14T15:23:59;5.60;;;2.90;;
77152;SDS011;66124;51.146;17.072;2023-03-14T15:26:28;5.60;;;3.00;;
77152;SDS011;66124;51.146;17.072;2023-03-14T15:28:57;3.80;;;2.80;;
77152;SDS011;66124;51.146;17.072;2023-03-14T15:31:27;5.60;;;3.40;;
77152;SDS011;66124;51.146;17.072;2023-03-14T15:33:56;5.80;;;3.20;;
77152;SDS011;66124;51.146;17.072;2023-03-14T15:36:26;4.70;;;2.80;;
77152;SDS011;66124;51.146;17.072;2023-03-14T15:38:57;5.40;;;2.60;;
77152;SDS011;66124;51.146;17.072;2023-03-14T15:41:27;4.60;;;2.40;;
77152;SDS011;66124;51.146;17.072;2023-03-14T15:43:57;4.70;;;2.50;;
77152;SDS011;66124;51.146;17.072;2023-03-14T15:46:26;3.90;;;2.30;;
77152;SDS011;66124;51.146;17.072;2023-03-14T15:48:55;6.70;;;3.20;;
77152;SDS011;66124;51.146;17.072;2023-03-14T15:51:25;4.80;;;3.00;;
77152;SDS011;66124;51.146;17.072;2023-03-14T15:53:54;4.00;;;2.60;;
77152;SDS011;66124;51.146;17.072;2023-03-14T15:56:23;4.30;;;2.50;;
77152;SDS011;66124;51.146;17.072;2023-03-14T15:58:53;4.60;;;2.40;;
77152;SDS011;66124;51.146;17.072;2023-03-14T16:01:22;5.30;;;2.30;;
77152;SDS011;66124;51.146;17.072;2023-03-14T16:03:51;3.60;;;2.20;;
77152;SDS011;66124;51.146;17.072;2023-03-14T16:06:21;3.10;;;1.50;;
77152;SDS011;66124;51.146;17.072;2023-03-14T16:08:50;0.50;;;0.50;;
77152;SDS011;66124;51.146;17.072;2023-03-14T16:16:35;3.80;;;2.20;;
77152;SDS011;66124;51.146;17.072;2023-03-14T16:19:04;2.70;;;1.30;;
77152;SDS011;66124;51.146;17.072;2023-03-14T16:21:35;2.30;;;1.50;;
77152;SDS011;66124;51.146;17.072;2023-03-14T16:24:05;4.50;;;1.60;;
77152;SDS011;66124;51.146;17.072;2023-03-14T16:26:34;1.90;;;1.30;;
77152;SDS011;66124;51.146;17.072;2023-03-14T16:29:03;2.80;;;1.60;;
77152;SDS011;66124;51.146;17.072;2023-03-14T16:31:33;4.00;;;1.50;;
77152;SDS011;66124;51.146;17.072;2023-03-14T16:34:02;3.10;;;1.40;;
77152;SDS011;66124;51.146;17.072;2023-03-14T16:36:31;2.20;;;1.10;;
77152;SDS011;66124;51.146;17.072;2023-03-14T16:39:01;3.10;;;1.40;;
77152;SDS011;66124;51.146;17.072;2023-03-14T16:41:30;3.30;;;1.40;;
77152;SDS011;66124;51.146;17.072;2023-03-14T16:44:00;2.10;;;1.30;;